createdAt,value
2023-05-08T00:03:29.211Z,5.60
2023-05-08T00:08:30.746Z,8.02
2023-05-08T00:13:32.068Z,7.45
2023-05-08T00:18:33.422Z,5.43
2023-05-08T00:23:34.852Z,6.40
2023-05-08T00:28:36.213Z,7.88
2023-05-08T00:33:37.571Z,6.53
2023-05-08T00:38:38.968Z,6.03
2023-05-08T00:43:40.496Z,5.47
2023-05-08T00:48:42.383Z,6.25
2023-05-08T00:53:45.251Z,6.70
2023-05-08T00:58:48.028Z,6.28
2023-05-08T01:03:49.914Z,6.25
2023-05-08T01:08:51.420Z,5.90
2023-05-08T01:14:13.435Z,8.68
2023-05-08T01:19:48.711Z,5.72
2023-05-08T01:25:09.446Z,7.47
2023-05-08T01:30:15.483Z,7.18
2023-05-08T01:35:27.577Z,5.85
2023-05-08T01:41:03.262Z,10.13
2023-05-08T01:46:09.651Z,7.30
2023-05-08T01:51:23.614Z,4.93
2023-05-08T01:56:28.554Z,5.95
2023-05-08T02:01:33.234Z,6.68
2023-05-08T02:06:36.662Z,7.28
2023-05-08T02:11:39.653Z,7.05
2023-05-08T02:16:43.267Z,8.48
2023-05-08T02:21:46.271Z,6.45
2023-05-08T02:26:50.000Z,8.05
2023-05-08T02:31:54.216Z,6.60
2023-05-08T02:36:55.937Z,6.45
2023-05-08T02:41:57.867Z,6.53
2023-05-08T02:47:25.784Z,6.25
2023-05-08T02:52:49.160Z,7.07
2023-05-08T02:58:04.008Z,5.82
2023-05-08T03:03:11.997Z,9.45
2023-05-08T03:08:20.754Z,7.38
2023-05-08T03:13:22.871Z,7.20
2023-05-08T03:18:32.156Z,7.10
2023-05-08T03:23:35.934Z,11.20
2023-05-08T03:28:38.523Z,7.78
2023-05-08T03:33:42.439Z,7.63
2023-05-08T03:38:44.159Z,9.43
2023-05-08T03:43:46.199Z,7.22
2023-05-08T03:48:50.272Z,7.88
2023-05-08T03:53:51.615Z,11.55
2023-05-08T03:59:09.612Z,8.65
2023-05-08T04:04:19.513Z,9.30
2023-05-08T04:09:30.571Z,10.10
2023-05-08T04:14:37.834Z,8.45
2023-05-08T04:24:49.031Z,8.90
2023-05-08T04:29:50.473Z,10.70
2023-05-08T04:34:52.784Z,10.27
2023-05-08T04:39:54.303Z,9.23
2023-05-08T04:44:55.669Z,9.80
2023-05-08T04:49:57.430Z,9.73
2023-05-08T04:54:59.407Z,8.18
2023-05-08T05:00:00.803Z,8.80
2023-05-08T05:05:02.181Z,7.97
2023-05-08T05:10:04.202Z,7.90
2023-05-08T05:15:06.127Z,10.10
2023-05-08T05:20:08.852Z,9.48
2023-05-08T05:25:10.598Z,8.32
2023-05-08T05:30:12.467Z,7.43
2023-05-08T05:35:14.170Z,10.65
2023-05-08T05:40:15.637Z,13.85
2023-05-08T05:45:17.102Z,8.38
2023-05-08T05:50:18.796Z,7.95
2023-05-08T05:55:20.455Z,7.40
2023-05-08T06:00:22.203Z,9.27
2023-05-08T06:05:23.750Z,6.82
2023-05-08T06:10:25.276Z,9.93
2023-05-08T06:15:26.748Z,8.75
2023-05-08T06:20:28.260Z,8.35
2023-05-08T06:25:30.875Z,8.10
2023-05-08T06:30:32.280Z,7.47
2023-05-08T06:35:33.688Z,8.38
2023-05-08T06:40:35.069Z,10.57
2023-05-08T06:45:36.456Z,9.02
2023-05-08T06:50:39.289Z,13.00
2023-05-08T06:55:43.582Z,10.23
2023-05-08T07:00:44.943Z,9.18
2023-05-08T07:05:46.362Z,10.90
2023-05-08T07:10:47.680Z,11.82
2023-05-08T07:15:49.131Z,9.88
2023-05-08T07:20:50.557Z,13.02
2023-05-08T07:25:51.889Z,9.82
2023-05-08T07:30:53.234Z,9.25
2023-05-08T07:35:54.572Z,10.20
2023-05-08T07:40:57.564Z,9.40
2023-05-08T07:45:59.319Z,10.20
2023-05-08T07:51:00.795Z,9.25
2023-05-08T07:56:02.461Z,8.27
2023-05-08T08:01:03.950Z,9.32
2023-05-08T08:06:05.436Z,7.53
2023-05-08T08:11:07.560Z,7.63
2023-05-08T08:16:08.944Z,8.77
2023-05-08T08:21:10.310Z,9.13
2023-05-08T08:26:11.678Z,10.75
2023-05-08T08:31:13.206Z,11.35
2023-05-08T08:36:15.754Z,9.73
2023-05-08T08:41:17.210Z,7.72
2023-05-08T08:46:23.717Z,11.85
2023-05-08T08:51:31.819Z,11.85
2023-05-08T08:56:36.031Z,9.68
2023-05-08T09:01:41.867Z,8.73
2023-05-08T09:06:45.211Z,14.25
2023-05-08T09:11:46.818Z,9.77
2023-05-08T09:16:51.377Z,10.82
2023-05-08T09:21:52.965Z,9.32
2023-05-08T09:26:54.350Z,9.30
2023-05-08T09:31:56.111Z,9.10
2023-05-08T09:37:06.322Z,7.50
2023-05-08T09:42:07.679Z,9.60
2023-05-08T09:47:11.155Z,8.80
2023-05-08T09:52:15.845Z,7.47
2023-05-08T09:57:17.541Z,8.77
2023-05-08T10:02:20.221Z,8.10
2023-05-08T10:07:29.665Z,11.68
2023-05-08T10:12:32.008Z,9.52
2023-05-08T10:17:51.600Z,8.13
2023-05-08T10:22:55.625Z,7.20
2023-05-08T10:28:42.588Z,7.07
2023-05-08T10:33:46.498Z,10.18
2023-05-08T10:38:49.711Z,9.13
2023-05-08T10:43:51.937Z,7.43
2023-05-08T10:49:24.426Z,9.13
2023-05-08T10:54:48.069Z,7.18
2023-05-08T10:59:49.493Z,6.15
2023-05-08T11:04:51.208Z,6.20
2023-05-08T11:09:53.717Z,7.53
2023-05-08T11:15:07.053Z,6.85
2023-05-08T11:20:09.055Z,8.02
2023-05-08T11:25:10.856Z,7.05
2023-05-08T11:30:35.101Z,7.50
2023-05-08T11:35:54.669Z,8.02
2023-05-08T11:41:07.508Z,8.63
2023-05-08T11:46:17.436Z,7.60
2023-05-08T11:51:21.631Z,8.50
2023-05-08T11:56:23.050Z,9.40
2023-05-08T12:01:24.428Z,7.88
2023-05-08T12:06:27.599Z,8.80
2023-05-08T12:11:28.998Z,8.65
2023-05-08T12:16:30.442Z,7.95
2023-05-08T12:21:32.005Z,9.52
2023-05-08T12:26:40.130Z,9.95
2023-05-08T12:31:41.726Z,9.40
2023-05-08T12:36:43.259Z,8.88
2023-05-08T12:41:52.646Z,8.00
2023-05-08T12:46:56.200Z,8.95
2023-05-08T12:52:06.658Z,9.27
2023-05-08T12:57:12.222Z,8.68
2023-05-08T13:02:18.856Z,7.95
2023-05-08T13:07:20.367Z,7.13
2023-05-08T13:12:21.724Z,8.38
2023-05-08T13:17:23.142Z,8.10
2023-05-08T13:22:26.586Z,6.43
2023-05-08T13:27:28.293Z,7.25
2023-05-08T13:32:29.745Z,6.70
2023-05-08T13:37:31.104Z,6.95
2023-05-08T13:42:32.451Z,8.30
2023-05-08T13:47:33.993Z,8.10
2023-05-08T13:52:35.768Z,6.72
2023-05-08T13:57:37.420Z,7.40
2023-05-08T14:02:38.888Z,11.52
2023-05-08T14:07:40.755Z,7.72
2023-05-08T14:12:42.174Z,11.32
2023-05-08T14:17:43.683Z,6.78
2023-05-08T14:27:46.837Z,7.57
2023-05-08T14:32:48.642Z,6.60
2023-05-08T14:37:50.048Z,9.43
2023-05-08T14:42:51.491Z,5.82
2023-05-08T14:47:52.897Z,7.15
2023-05-08T14:52:54.494Z,7.10
2023-05-08T14:57:56.410Z,7.65
2023-05-08T15:02:57.895Z,9.07
2023-05-08T15:07:59.618Z,6.82
2023-05-08T15:13:01.149Z,9.52
2023-05-08T15:18:02.662Z,6.32
2023-05-08T15:23:04.509Z,7.20
2023-05-08T15:28:06.316Z,5.20
2023-05-08T15:33:07.686Z,6.20
2023-05-08T15:38:09.261Z,6.18
2023-05-08T15:43:10.726Z,6.85
2023-05-08T15:48:12.373Z,7.03
2023-05-08T15:53:14.181Z,5.20
2023-05-08T15:58:15.831Z,4.55
2023-05-08T16:03:17.455Z,4.68
2023-05-08T16:08:19.120Z,6.90
2023-05-08T16:13:21.036Z,6.45
2023-05-08T16:18:22.862Z,4.72
2023-05-08T16:23:24.481Z,4.65
2023-05-08T16:28:25.918Z,4.22
2023-05-08T16:33:27.335Z,5.15
2023-05-08T16:38:28.714Z,7.15
2023-05-08T16:43:30.438Z,9.77
2023-05-08T16:48:31.854Z,5.40
2023-05-08T16:53:33.196Z,5.75
2023-05-08T16:58:34.574Z,5.75
2023-05-08T17:03:36.249Z,7.72
2023-05-08T17:08:37.712Z,4.85
2023-05-08T17:13:39.079Z,6.68
2023-05-08T17:18:40.505Z,6.38
2023-05-08T17:23:41.943Z,5.65
2023-05-08T17:28:43.440Z,8.68
2023-05-08T17:33:45.024Z,7.05
2023-05-08T17:38:47.178Z,7.93
2023-05-08T17:43:48.579Z,6.32
2023-05-08T17:48:49.987Z,6.15
2023-05-08T17:53:52.980Z,7.35
2023-05-08T17:58:55.467Z,8.13
2023-05-08T18:03:56.903Z,8.40
2023-05-08T18:08:58.268Z,7.75
2023-05-08T18:13:59.607Z,9.30
2023-05-08T18:19:00.996Z,8.57
2023-05-08T18:24:02.513Z,9.15
2023-05-08T18:29:03.894Z,8.45
2023-05-08T18:34:05.262Z,8.93
2023-05-08T18:39:06.625Z,7.53
2023-05-08T18:44:09.228Z,9.27
2023-05-08T18:49:10.648Z,7.82
2023-05-08T18:54:12.010Z,9.52
2023-05-08T18:59:13.523Z,12.43
2023-05-08T19:04:15.135Z,8.40
2023-05-08T19:09:16.597Z,10.07
2023-05-08T19:14:17.926Z,9.73
2023-05-08T19:19:19.331Z,9.50
2023-05-08T19:24:23.923Z,9.90
2023-05-08T19:29:25.341Z,7.95
2023-05-08T19:34:26.820Z,9.60
2023-05-08T19:39:28.154Z,11.52
2023-05-08T19:44:31.425Z,10.68
2023-05-08T19:49:32.761Z,9.20
2023-05-08T19:54:34.157Z,10.57
2023-05-08T19:59:35.541Z,9.93
2023-05-08T20:04:48.699Z,10.73
2023-05-08T20:09:58.328Z,8.93
2023-05-08T20:14:59.689Z,11.20
2023-05-08T20:20:01.233Z,10.48
2023-05-08T20:25:04.424Z,11.68
2023-05-08T20:30:06.811Z,12.65
2023-05-08T20:35:08.807Z,10.15
2023-05-08T20:40:10.844Z,13.75
2023-05-08T20:45:12.557Z,12.27
2023-05-08T20:50:16.038Z,13.30
2023-05-08T20:55:17.685Z,12.65
2023-05-08T21:00:19.466Z,10.65
2023-05-08T21:05:20.859Z,11.25
2023-05-08T21:10:22.207Z,11.82
2023-05-08T21:15:24.236Z,9.80
2023-05-08T21:20:25.595Z,11.50
2023-05-08T21:25:26.992Z,13.30
2023-05-08T21:30:28.730Z,14.48
2023-05-08T21:35:30.207Z,12.80
2023-05-08T21:40:31.531Z,14.23
2023-05-08T21:45:33.154Z,15.45
2023-05-08T21:50:34.564Z,15.45
2023-05-08T21:55:36.050Z,17.85
2023-05-08T22:00:37.454Z,22.98
2023-05-08T22:05:38.801Z,16.50
2023-05-08T22:10:40.512Z,17.42
2023-05-08T22:15:42.415Z,19.25
2023-05-08T22:20:43.863Z,17.25
2023-05-08T22:25:45.227Z,14.77
2023-05-08T22:30:46.624Z,16.42
2023-05-08T22:35:47.955Z,16.83
2023-05-08T22:40:49.391Z,18.25
2023-05-08T22:45:50.865Z,14.18
2023-05-08T22:50:52.549Z,13.05
2023-05-08T22:55:53.917Z,15.38
2023-05-08T23:00:55.746Z,14.90
2023-05-08T23:05:57.213Z,15.98
2023-05-08T23:10:58.556Z,12.85
2023-05-08T23:15:59.929Z,14.90
2023-05-08T23:21:08.212Z,13.48
2023-05-08T23:26:09.622Z,16.00
2023-05-08T23:31:11.081Z,15.00
2023-05-08T23:36:12.485Z,14.20
2023-05-08T23:41:14.061Z,15.02
2023-05-08T23:46:15.812Z,13.50
2023-05-08T23:51:17.211Z,12.43
2023-05-08T23:56:18.612Z,12.98
